Time;durP1;ratioP1;P1;durP2;ratioP2;P2;SDS_P1;SDS_P2;PMS_P1;PMS_P2;Temp;Humidity;BMP_temperature;BMP_pressure;BME280_temperature;BME280_humidity;BME280_pressure;Samples;Min_cycle;Max_cycle;Signal;HPM_P1;HPM_P2
2021/06/05 00:00:53;;;;;;;70.20;51.90;;;20.40;99.70;;;;;;4949353;28;20441;-76
2021/06/05 00:03:20;;;;;;;72.82;54.10;;;20.40;99.80;;;;;;4947664;28;20437;-76
2021/06/05 00:05:49;;;;;;;68.70;52.22;;;20.40;99.90;;;;;;4952230;28;20437;-75
2021/06/05 00:08:18;;;;;;;70.70;52.70;;;20.40;99.90;;;;;;4949633;28;20429;-76
2021/06/05 00:10:48;;;;;;;75.22;55.33;;;20.40;99.90;;;;;;4950226;28;20822;-76
2021/06/05 00:13:17;;;;;;;69.37;52.07;;;20.40;99.90;;;;;;4950216;28;20516;-76
2021/06/05 00:15:45;;;;;;;73.35;54.13;;;20.40;99.90;;;;;;4951102;28;20439;-75
2021/06/05 00:18:13;;;;;;;67.75;50.15;;;20.40;99.90;;;;;;4948489;28;20449;-77
2021/06/05 00:20:40;;;;;;;69.53;49.78;;;20.40;99.90;;;;;;4950374;28;20927;-75
2021/06/05 00:23:10;;;;;;;68.22;49.40;;;20.50;99.90;;;;;;4950951;28;20989;-75
2021/06/05 00:25:38;;;;;;;63.95;46.78;;;20.50;99.90;;;;;;4948635;28;20450;-75
2021/06/05 00:28:05;;;;;;;59.23;43.40;;;20.50;99.90;;;;;;4949633;28;20910;-75
2021/06/05 00:30:33;;;;;;;56.85;39.97;;;20.50;99.60;;;;;;4949484;28;20441;-76
2021/06/05 00:33:00;;;;;;;53.92;38.58;;;20.60;98.90;;;;;;4932812;28;20495;-75
2021/06/05 00:35:28;;;;;;;48.90;35.28;;;20.60;98.60;;;;;;4950995;28;20437;-76
2021/06/05 00:37:55;;;;;;;49.53;35.20;;;20.70;99.00;;;;;;4949436;28;20826;-74
2021/06/05 00:40:25;;;;;;;56.30;38.08;;;20.70;97.70;;;;;;4947854;28;20435;-73
2021/06/05 00:42:55;;;;;;;59.55;40.42;;;20.70;97.70;;;;;;4948772;28;20437;-75
2021/06/05 00:45:23;;;;;;;66.70;42.75;;;20.70;97.60;;;;;;4930117;29;20425;-76
2021/06/05 00:47:50;;;;;;;71.18;44.30;;;20.70;97.60;;;;;;4933562;29;20552;-75
2021/06/05 00:50:17;;;;;;;76.50;47.38;;;20.70;97.50;;;;;;4951916;28;20591;-75
2021/06/05 00:52:45;;;;;;;80.03;49.77;;;20.70;97.50;;;;;;4933078;29;20460;-76
2021/06/05 00:55:15;;;;;;;82.10;49.35;;;20.70;97.70;;;;;;4933008;28;20434;-76
2021/06/05 00:57:43;;;;;;;88.57;51.03;;;20.70;97.40;;;;;;4949947;28;20437;-76
2021/06/05 01:00:23;;;;;;;89.63;51.58;;;20.70;97.50;;;;;;4948518;28;20486;-74
2021/06/05 01:02:50;;;;;;;85.82;51.10;;;20.70;97.20;;;;;;4931988;29;20542;-75
2021/06/05 01:05:19;;;;;;;84.90;50.28;;;20.70;97.80;;;;;;4931736;29;20444;-75
2021/06/05 01:07:47;;;;;;;79.72;48.08;;;20.70;97.90;;;;;;4930997;29;20441;-74
2021/06/05 01:10:20;;;;;;;71.75;45.13;;;20.70;97.50;;;;;;4948135;28;20479;-75
2021/06/05 01:12:54;;;;;;;70.22;44.63;;;20.70;97.50;;;;;;4933880;28;20490;-74
2021/06/05 01:15:28;;;;;;;66.70;41.97;;;20.70;98.00;;;;;;4930779;29;20524;-76
2021/06/05 01:18:00;;;;;;;62.50;40.38;;;20.70;97.60;;;;;;4946294;28;20846;-76
2021/06/05 01:20:37;;;;;;;58.03;39.57;;;20.70;97.70;;;;;;4930803;29;20520;-75
2021/06/05 01:23:16;;;;;;;46.83;32.50;;;20.70;97.90;;;;;;4931866;29;20469;-75
2021/06/05 01:26:02;;;;;;;44.10;31.30;;;20.70;97.50;;;;;;4947384;28;20802;-74
2021/06/05 01:28:45;;;;;;;46.97;31.35;;;20.80;97.40;;;;;;5136696;27;20466;-76
2021/06/05 01:31:15;;;;;;;35.03;24.27;;;20.80;97.50;;;;;;5116900;27;20447;-75
2021/06/05 01:33:42;;;;;;;32.37;22.23;;;20.80;97.20;;;;;;5098560;28;20954;-75
2021/06/05 01:36:14;;;;;;;32.88;22.20;;;20.80;97.10;;;;;;5100931;28;20432;-76
2021/06/05 01:38:46;;;;;;;33.60;21.13;;;20.70;97.70;;;;;;5098419;28;20432;-75
2021/06/05 01:41:15;;;;;;;34.50;21.23;;;20.80;98.20;;;;;;5098034;28;21565;-75
2021/06/05 01:43:46;;;;;;;32.50;20.60;;;20.70;97.80;;;;;;5099499;28;20644;-76
2021/06/05 01:46:15;;;;;;;31.20;19.90;;;20.70;97.80;;;;;;5100177;28;20478;-75
2021/06/05 01:48:42;;;;;;;31.80;19.80;;;20.70;97.50;;;;;;5097763;28;20462;-76
2021/06/05 01:51:13;;;;;;;34.85;20.83;;;20.70;96.90;;;;;;5098162;28;20414;-76
2021/06/05 01:53:47;;;;;;;31.83;19.40;;;20.70;97.10;;;;;;5099695;28;20409;-74
2021/06/05 01:56:18;;;;;;;34.08;20.48;;;20.70;96.70;;;;;;5099015;28;20479;-76
2021/06/05 01:58:50;;;;;;;32.00;18.90;;;20.70;97.40;;;;;;5100310;28;20426;-76
2021/06/05 02:01:28;;;;;;;29.85;18.85;;;20.70;97.30;;;;;;5099301;28;20435;-76
2021/06/05 02:03:56;;;;;;;30.50;18.77;;;20.70;97.10;;;;;;5098716;28;20970;-76
2021/06/05 02:06:32;;;;;;;30.83;18.10;;;20.70;96.90;;;;;;5100459;28;20784;-75
2021/06/05 02:09:06;;;;;;;29.95;17.35;;;20.70;96.80;;;;;;5098152;28;20457;-77
2021/06/05 02:11:39;;;;;;;28.80;17.42;;;20.70;96.60;;;;;;5098983;28;20549;-77
2021/06/05 02:14:13;;;;;;;28.30;16.77;;;20.60;96.60;;;;;;5099722;28;20425;-75
2021/06/05 02:16:50;;;;;;;24.33;15.68;;;20.60;97.10;;;;;;5129703;27;20512;-76
2021/06/05 02:19:25;;;;;;;25.30;15.55;;;20.60;96.60;;;;;;5097494;28;20453;-75
2021/06/05 02:22:12;;;;;;;29.23;16.27;;;20.60;96.60;;;;;;5095368;28;20433;-76
2021/06/05 02:24:42;;;;;;;29.73;17.17;;;20.60;96.70;;;;;;5096370;28;20869;-75
2021/06/05 02:27:12;;;;;;;28.05;15.93;;;20.50;97.40;;;;;;5099752;28;20437;-76
2021/06/05 02:29:44;;;;;;;28.15;17.15;;;20.60;97.10;;;;;;5125831;27;20522;-75
2021/06/05 02:32:16;;;;;;;28.35;17.15;;;20.50;97.10;;;;;;5095671;28;20434;-75
2021/06/05 02:34:46;;;;;;;28.58;16.95;;;20.50;96.80;;;;;;5097485;28;20917;-75
2021/06/05 02:37:17;;;;;;;31.58;18.65;;;20.50;96.80;;;;;;5101108;28;20840;-75
2021/06/05 02:39:45;;;;;;;38.05;24.65;;;20.50;96.90;;;;;;5084384;28;20422;-75
2021/06/05 02:42:15;;;;;;;44.47;27.00;;;20.50;97.00;;;;;;5087091;28;20778;-75
2021/06/05 02:44:47;;;;;;;48.70;30.67;;;20.50;97.20;;;;;;5085724;28;20429;-75
2021/06/05 02:47:15;;;;;;;42.97;28.17;;;20.50;98.00;;;;;;5117918;27;20480;-76
2021/06/05 02:49:43;;;;;;;49.13;28.95;;;20.50;97.20;;;;;;5085994;28;20454;-76
2021/06/05 02:52:28;;;;;;;44.30;28.73;;;20.50;97.70;;;;;;5085471;28;20419;-74
2021/06/05 02:54:58;;;;;;;41.57;28.10;;;20.50;98.00;;;;;;5086787;28;20518;-75
2021/06/05 02:57:29;;;;;;;44.35;28.83;;;20.50;97.20;;;;;;5081504;28;20453;-76
2021/06/05 02:59:57;;;;;;;42.97;28.80;;;20.50;97.50;;;;;;5084872;28;21255;-75
2021/06/05 03:02:24;;;;;;;41.55;27.27;;;20.40;97.30;;;;;;5085896;28;20421;-76
2021/06/05 03:04:51;;;;;;;49.10;30.75;;;20.40;97.40;;;;;;5084163;28;20549;-76
2021/06/05 03:07:18;;;;;;;42.35;27.60;;;20.40;97.50;;;;;;5084111;28;20421;-76
2021/06/05 03:09:45;;;;;;;31.27;21.92;;;20.40;97.80;;;;;;5083714;28;20422;-75
2021/06/05 03:12:14;;;;;;;29.30;20.42;;;20.40;97.40;;;;;;5085718;28;20418;-76
2021/06/05 03:14:41;;;;;;;27.30;20.20;;;20.40;97.20;;;;;;5082056;28;20428;-76
2021/06/05 03:17:10;;;;;;;26.42;19.65;;;20.40;96.90;;;;;;5083816;28;20462;-77
2021/06/05 03:19:38;;;;;;;28.05;21.30;;;20.40;97.30;;;;;;5085839;28;20422;-74
2021/06/05 03:22:06;;;;;;;24.73;19.88;;;20.40;97.60;;;;;;5085193;28;20739;-76
2021/06/05 03:24:42;;;;;;;28.70;21.15;;;20.30;97.50;;;;;;5085448;28;20267;-77
2021/06/05 03:27:08;;;;;;;31.20;21.30;;;20.00;97.90;;;;;;5100893;28;20229;-77
2021/06/05 03:29:38;;;;;;;28.13;22.65;;;19.70;98.40;;;;;;5082842;28;20220;-76
2021/06/05 03:32:09;;;;;;;32.30;22.27;;;19.50;98.70;;;;;;5085000;28;20227;-76
2021/06/05 03:34:37;;;;;;;32.28;23.58;;;19.40;99.00;;;;;;5080883;28;20202;-77
2021/06/05 03:37:06;;;;;;;37.40;21.67;;;19.30;99.20;;;;;;5084333;28;20318;-76
2021/06/05 03:39:33;;;;;;;28.23;21.55;;;19.20;99.30;;;;;;5116036;27;20299;-78
2021/06/05 03:42:03;;;;;;;32.13;23.25;;;19.10;99.40;;;;;;5084850;28;20202;-75
2021/06/05 03:44:29;;;;;;;27.52;21.58;;;19.00;99.40;;;;;;5084115;28;20658;-75
2021/06/05 03:46:56;;;;;;;31.88;22.58;;;18.90;99.50;;;;;;5087017;28;20218;-76
2021/06/05 03:49:25;;;;;;;26.67;21.80;;;18.90;99.70;;;;;;5085271;28;20713;-77
2021/06/05 03:51:53;;;;;;;28.90;21.67;;;18.80;99.90;;;;;;5084064;28;20263;-76
2021/06/05 03:54:22;;;;;;;26.48;20.40;;;18.80;99.90;;;;;;5085244;28;20200;-76
2021/06/05 03:56:48;;;;;;;27.15;21.23;;;18.70;99.90;;;;;;5086573;28;20199;-77
2021/06/05 03:59:14;;;;;;;29.33;22.77;;;18.70;99.90;;;;;;5084603;28;20429;-75
2021/06/05 04:01:41;;;;;;;25.45;21.77;;;19.20;99.90;;;;;;5081795;28;20437;-75
2021/06/05 04:04:07;;;;;;;23.58;19.40;;;19.50;99.90;;;;;;5086684;28;20941;-76
2021/06/05 04:06:35;;;;;;;20.40;17.85;;;19.60;99.70;;;;;;5084708;28;20607;-75
2021/06/05 04:09:03;;;;;;;18.77;16.77;;;19.30;99.90;;;;;;5084769;28;20206;-75
2021/06/05 04:11:32;;;;;;;15.80;14.20;;;19.20;99.90;;;;;;5084302;28;20206;-75
2021/06/05 04:14:00;;;;;;;17.27;14.95;;;19.00;99.90;;;;;;5110608;27;20202;-75
2021/06/05 04:16:26;;;;;;;17.80;14.70;;;18.90;99.90;;;;;;5084774;28;20210;-76
2021/06/05 04:18:53;;;;;;;20.10;15.10;;;18.90;99.90;;;;;;5085402;28;20662;-75
2021/06/05 04:21:22;;;;;;;21.33;16.98;;;18.80;99.90;;;;;;5084907;28;20209;-75
2021/06/05 04:23:51;;;;;;;18.05;15.35;;;18.80;99.90;;;;;;5085976;28;20613;-77
2021/06/05 04:26:21;;;;;;;22.92;14.93;;;18.80;99.90;;;;;;5084584;28;21730;-75
2021/06/05 04:28:48;;;;;;;26.13;19.77;;;18.70;99.90;;;;;;5085420;28;20214;-75
2021/06/05 04:31:15;;;;;;;29.50;21.98;;;18.70;99.90;;;;;;5082920;28;20575;-75
2021/06/05 04:33:42;;;;;;;29.75;21.63;;;18.70;99.90;;;;;;5084149;28;20200;-75
2021/06/05 04:36:13;;;;;;;25.80;21.98;;;18.70;99.90;;;;;;5083624;28;20206;-77
2021/06/05 04:38:40;;;;;;;27.52;22.17;;;18.70;99.90;;;;;;5082732;28;20198;-76
2021/06/05 04:41:10;;;;;;;27.20;22.93;;;18.70;99.90;;;;;;5076625;28;20433;-75
2021/06/05 04:43:38;;;;;;;26.13;22.48;;;19.10;99.90;;;;;;5086486;28;20453;-75
2021/06/05 04:46:06;;;;;;;24.65;20.30;;;19.50;99.90;;;;;;5080372;28;20426;-75
2021/06/05 04:48:32;;;;;;;22.42;19.65;;;19.60;99.90;;;;;;5084859;28;20899;-75
2021/06/05 04:50:59;;;;;;;26.00;20.27;;;19.70;99.90;;;;;;5077738;28;20425;-75
2021/06/05 04:53:25;;;;;;;23.63;20.08;;;19.80;99.40;;;;;;5085181;28;20452;-73
2021/06/05 04:55:53;;;;;;;19.98;17.67;;;19.80;99.00;;;;;;5082758;28;20435;-75
2021/06/05 04:58:21;;;;;;;21.20;18.45;;;19.90;99.10;;;;;;5078250;28;20819;-76
2021/06/05 05:00:51;;;;;;;20.75;17.27;;;19.90;99.10;;;;;;5072718;28;20426;-72
2021/06/05 05:03:19;;;;;;;22.25;16.77;;;19.90;99.10;;;;;;5077818;28;20446;-73
2021/06/05 05:05:46;;;;;;;18.10;15.60;;;19.90;98.70;;;;;;5077887;28;20442;-74
2021/06/05 05:08:16;;;;;;;20.77;16.75;;;19.90;98.50;;;;;;5076129;28;20430;-73
2021/06/05 05:10:45;;;;;;;19.50;16.27;;;19.90;98.80;;;;;;5076109;28;20428;-72
2021/06/05 05:13:13;;;;;;;21.55;18.40;;;19.90;98.70;;;;;;5076464;28;20524;-73
2021/06/05 05:15:41;;;;;;;23.08;18.65;;;19.80;98.80;;;;;;5078536;28;21481;-73
2021/06/05 05:18:07;;;;;;;22.33;17.87;;;19.90;98.70;;;;;;5078285;28;21162;-77
2021/06/05 05:20:36;;;;;;;20.20;18.00;;;19.80;98.60;;;;;;5083477;28;20425;-77
2021/06/05 05:23:04;;;;;;;25.60;19.17;;;19.90;99.10;;;;;;5084919;28;20796;-75
2021/06/05 05:25:31;;;;;;;19.73;17.38;;;19.90;98.90;;;;;;5078388;28;20608;-75
2021/06/05 05:27:58;;;;;;;21.35;18.83;;;19.90;98.50;;;;;;5081276;28;20430;-76
2021/06/05 05:30:28;;;;;;;18.13;16.30;;;19.90;98.80;;;;;;5081324;28;21589;-76
2021/06/05 05:32:56;;;;;;;20.23;17.70;;;19.90;98.80;;;;;;5115297;28;20909;-76
2021/06/05 05:35:23;;;;;;;20.55;18.00;;;19.90;98.90;;;;;;5082960;28;20425;-77
2021/06/05 05:37:49;;;;;;;16.95;14.98;;;20.00;99.10;;;;;;5083409;28;20475;-76
2021/06/05 05:40:17;;;;;;;17.85;14.82;;;20.00;98.80;;;;;;5083486;28;20430;-76
2021/06/05 05:42:43;;;;;;;17.20;15.40;;;20.00;98.70;;;;;;5082678;28;20434;-75
2021/06/05 05:45:11;;;;;;;21.00;18.05;;;20.00;98.40;;;;;;5082948;28;20424;-78
2021/06/05 05:47:38;;;;;;;17.60;15.70;;;20.00;98.60;;;;;;5082784;28;20447;-76
2021/06/05 05:50:09;;;;;;;20.58;17.42;;;20.00;98.50;;;;;;5081829;28;20478;-75
2021/06/05 05:52:35;;;;;;;18.10;15.27;;;20.00;98.60;;;;;;5083535;28;20436;-78
2021/06/05 05:55:03;;;;;;;20.95;17.35;;;20.10;98.10;;;;;;5083745;28;20430;-76
2021/06/05 05:57:30;;;;;;;16.00;14.07;;;20.10;98.00;;;;;;5077853;28;20417;-77
2021/06/05 05:59:56;;;;;;;17.63;14.80;;;20.10;97.80;;;;;;5084349;28;20512;-74
2021/06/05 06:02:23;;;;;;;16.75;14.70;;;20.00;97.70;;;;;;5082247;28;20417;-75
2021/06/05 06:04:49;;;;;;;19.80;17.70;;;20.00;97.50;;;;;;5083342;28;20426;-73
2021/06/05 06:07:17;;;;;;;19.13;16.50;;;20.00;98.20;;;;;;5081785;28;20913;-74
2021/06/05 06:09:43;;;;;;;19.80;17.37;;;20.00;98.00;;;;;;5078636;28;20425;-75
2021/06/05 06:12:10;;;;;;;23.77;20.48;;;20.10;97.70;;;;;;5083587;28;20752;-75
2021/06/05 06:14:36;;;;;;;23.63;20.38;;;20.10;98.40;;;;;;5085798;28;20460;-77
2021/06/05 06:17:03;;;;;;;26.63;21.80;;;20.10;98.10;;;;;;5086214;28;20410;-76
2021/06/05 06:19:30;;;;;;;26.98;21.27;;;20.10;98.30;;;;;;5085579;28;20418;-75
2021/06/05 06:21:57;;;;;;;29.23;23.08;;;20.10;98.30;;;;;;5090511;28;20432;-75
2021/06/05 06:24:25;;;;;;;29.23;24.38;;;20.10;97.80;;;;;;5090559;28;20446;-77
2021/06/05 06:26:54;;;;;;;33.28;25.30;;;20.10;97.60;;;;;;5089995;28;20512;-77
2021/06/05 06:29:28;;;;;;;30.63;24.48;;;20.10;97.70;;;;;;5085597;28;20781;-77
2021/06/05 06:31:55;;;;;;;28.48;23.88;;;20.20;98.10;;;;;;5083517;28;20456;-76
2021/06/05 06:34:22;;;;;;;32.00;26.13;;;20.20;97.50;;;;;;5085466;28;20421;-76
2021/06/05 06:36:51;;;;;;;35.55;27.50;;;20.20;98.00;;;;;;5083812;28;20426;-78
2021/06/05 06:39:17;;;;;;;38.17;29.02;;;20.20;98.20;;;;;;5082826;28;20770;-77
2021/06/05 06:41:45;;;;;;;36.70;28.75;;;20.10;98.20;;;;;;5082153;28;21348;-78
2021/06/05 06:44:12;;;;;;;36.60;29.40;;;20.20;98.50;;;;;;5083750;28;20443;-77
2021/06/05 06:46:41;;;;;;;37.15;27.98;;;20.20;98.10;;;;;;5084518;28;20789;-75
2021/06/05 06:49:09;;;;;;;34.33;26.67;;;20.10;97.70;;;;;;5082034;28;20776;-78
2021/06/05 06:51:36;;;;;;;34.80;26.40;;;20.10;97.30;;;;;;5084908;28;20406;-76
2021/06/05 06:54:04;;;;;;;37.38;28.85;;;20.10;97.30;;;;;;5087091;28;20429;-75
2021/06/05 06:56:31;;;;;;;43.47;29.92;;;20.10;97.50;;;;;;5083204;28;20459;-76
2021/06/05 06:58:59;;;;;;;35.53;26.98;;;20.10;97.70;;;;;;5083483;28;20423;-76
2021/06/05 07:01:26;;;;;;;36.28;28.05;;;20.10;97.80;;;;;;5085009;28;20484;-76
2021/06/05 07:03:53;;;;;;;34.95;25.73;;;20.10;97.60;;;;;;5087004;28;20426;-76
2021/06/05 07:06:21;;;;;;;38.60;29.10;;;20.10;97.10;;;;;;5086377;28;20439;-78
2021/06/05 07:08:48;;;;;;;33.92;25.10;;;20.00;97.50;;;;;;5086546;28;20485;-77
2021/06/05 07:11:18;;;;;;;33.05;23.80;;;20.00;97.30;;;;;;5085547;28;20424;-77
2021/06/05 07:13:45;;;;;;;31.08;23.77;;;20.00;97.20;;;;;;5084382;28;20455;-76
2021/06/05 07:16:14;;;;;;;30.98;24.48;;;20.00;97.00;;;;;;5082787;28;20930;-75
2021/06/05 07:18:40;;;;;;;35.45;26.08;;;20.00;97.30;;;;;;5084655;28;20464;-76
2021/06/05 07:21:10;;;;;;;38.30;29.40;;;20.00;97.50;;;;;;5085203;28;20431;-75
2021/06/05 07:23:38;;;;;;;37.20;27.73;;;20.00;97.50;;;;;;5086458;28;20437;-76
2021/06/05 07:26:08;;;;;;;34.47;27.73;;;20.00;97.70;;;;;;5080879;28;20435;-76
2021/06/05 07:28:37;;;;;;;38.45;29.02;;;20.00;97.30;;;;;;5082163;28;20777;-77
2021/06/05 07:31:06;;;;;;;35.42;26.75;;;20.00;97.60;;;;;;5081327;28;20417;-76
2021/06/05 07:33:34;;;;;;;37.22;28.23;;;20.00;98.00;;;;;;5084451;28;20522;-75
2021/06/05 07:36:01;;;;;;;35.92;26.73;;;20.00;97.90;;;;;;5083757;28;20429;-75
2021/06/05 07:38:29;;;;;;;40.13;28.67;;;20.00;98.20;;;;;;5081499;28;20421;-74
2021/06/05 07:40:57;;;;;;;39.43;28.43;;;20.00;97.80;;;;;;5084217;28;20424;-73
2021/06/05 07:43:27;;;;;;;42.10;29.55;;;20.00;97.90;;;;;;5082458;28;20416;-73
2021/06/05 07:45:55;;;;;;;39.03;27.97;;;20.00;98.00;;;;;;5085751;28;20478;-73
2021/06/05 07:48:21;;;;;;;41.67;29.63;;;20.00;98.30;;;;;;5080630;28;20479;-73
2021/06/05 07:50:50;;;;;;;41.40;28.55;;;20.10;98.00;;;;;;5082727;28;20929;-74
2021/06/05 07:53:16;;;;;;;37.75;26.38;;;20.10;98.20;;;;;;5078746;28;20203;-73
2021/06/05 07:55:42;;;;;;;41.25;27.92;;;19.70;98.60;;;;;;5081768;28;20209;-74
2021/06/05 07:58:09;;;;;;;42.55;27.05;;;19.50;99.20;;;;;;5078531;28;20198;-73
2021/06/05 08:00:36;;;;;;;43.00;27.58;;;19.30;99.60;;;;;;5114329;27;20628;-74
2021/06/05 08:03:04;;;;;;;46.90;28.10;;;19.20;99.70;;;;;;5079332;28;20201;-74
2021/06/05 08:05:30;;;;;;;54.85;33.58;;;19.10;99.90;;;;;;5079555;28;20850;-74
2021/06/05 08:07:58;;;;;;;51.03;32.77;;;19.40;99.90;;;;;;5075518;28;20904;-73
2021/06/05 08:10:25;;;;;;;50.70;31.40;;;19.70;99.90;;;;;;5086084;28;20989;-74
2021/06/05 08:12:52;;;;;;;44.92;28.73;;;19.80;99.30;;;;;;5083475;28;20422;-72
2021/06/05 08:15:22;;;;;;;44.92;27.58;;;19.90;98.70;;;;;;5079077;28;20204;-74
2021/06/05 08:17:48;;;;;;;51.63;28.60;;;19.60;98.80;;;;;;5081463;28;20198;-74
2021/06/05 08:20:18;;;;;;;61.75;32.47;;;19.30;99.10;;;;;;5087498;28;20208;-74
2021/06/05 08:22:45;;;;;;;70.82;35.70;;;19.20;99.40;;;;;;5086103;28;20206;-74
2021/06/05 08:25:14;;;;;;;72.75;37.38;;;19.00;99.50;;;;;;5087032;28;20670;-74
2021/06/05 08:27:42;;;;;;;77.25;38.67;;;18.90;99.50;;;;;;5082621;28;20233;-73
2021/06/05 08:30:13;;;;;;;78.90;38.92;;;18.80;99.70;;;;;;5085610;28;20428;-74
2021/06/05 08:32:39;;;;;;;75.82;37.85;;;18.70;99.90;;;;;;5084558;28;20195;-74
2021/06/05 08:35:06;;;;;;;53.85;28.50;;;18.60;99.90;;;;;;5085735;28;20258;-74
2021/06/05 08:37:35;;;;;;;41.45;21.60;;;18.60;99.90;;;;;;5081323;28;20202;-75
2021/06/05 08:40:01;;;;;;;35.33;19.42;;;18.50;99.90;;;;;;5081725;28;20201;-74
2021/06/05 08:42:37;;;;;;;33.50;19.02;;;18.50;99.90;;;;;;5082123;28;20206;-73
2021/06/05 08:45:05;;;;;;;26.73;16.95;;;18.40;99.90;;;;;;5085010;28;20289;-73
2021/06/05 08:47:35;;;;;;;26.08;16.00;;;18.40;99.90;;;;;;5081065;28;20217;-75
2021/06/05 08:50:04;;;;;;;27.95;14.20;;;18.40;99.90;;;;;;5084393;28;20204;-75
2021/06/05 08:52:36;;;;;;;31.30;14.95;;;18.30;99.90;;;;;;5078467;28;20202;-73
2021/06/05 08:55:09;;;;;;;22.48;13.80;;;18.30;99.90;;;;;;5085299;28;20202;-75
2021/06/05 08:57:41;;;;;;;26.48;14.93;;;18.30;99.90;;;;;;5082281;28;20262;-77
2021/06/05 09:00:17;;;;;;;25.27;15.38;;;18.20;99.90;;;;;;5083326;28;20208;-77
2021/06/05 09:02:45;;;;;;;26.42;15.07;;;18.20;99.90;;;;;;5083127;28;20201;-75
2021/06/05 09:05:15;;;;;;;26.02;16.02;;;18.20;99.90;;;;;;5079952;28;20206;-76
2021/06/05 09:07:42;;;;;;;23.05;15.23;;;18.20;99.90;;;;;;5083174;28;20229;-74
2021/06/05 09:10:11;;;;;;;22.23;15.00;;;18.20;99.90;;;;;;5082488;28;21132;-74
2021/06/05 09:12:39;;;;;;;24.58;15.93;;;18.20;99.90;;;;;;5084260;28;20245;-73
2021/06/05 09:15:07;;;;;;;25.95;16.65;;;18.20;99.90;;;;;;5083886;28;20201;-73
2021/06/05 09:17:37;;;;;;;28.92;17.55;;;18.10;99.90;;;;;;5082399;28;20213;-75
2021/06/05 09:20:13;;;;;;;28.67;17.58;;;18.10;99.90;;;;;;5085066;28;20268;-74
2021/06/05 09:22:42;;;;;;;25.30;17.90;;;18.00;99.90;;;;;;5086622;28;20193;-74
2021/06/05 09:25:35;;;;;;;26.02;17.17;;;18.00;99.90;;;;;;5080676;28;20740;-75
2021/06/05 09:28:22;;;;;;;30.17;17.73;;;18.00;99.90;;;;;;5084563;28;20229;-75
2021/06/05 09:30:50;;;;;;;25.38;18.02;;;18.00;99.90;;;;;;5080581;28;20213;-75
2021/06/05 09:33:30;;;;;;;24.88;17.80;;;17.90;99.90;;;;;;5083452;28;20209;-77
2021/06/05 09:36:18;;;;;;;23.38;16.65;;;17.90;99.90;;;;;;5079130;28;20213;-78
2021/06/05 09:38:50;;;;;;;23.17;17.10;;;17.80;99.90;;;;;;5079092;28;20232;-76
2021/06/05 09:41:24;;;;;;;26.05;17.88;;;17.80;99.90;;;;;;5075602;28;20202;-78
2021/06/05 09:44:00;;;;;;;28.35;17.35;;;17.80;99.90;;;;;;5085951;28;20204;-76
2021/06/05 09:46:31;;;;;;;33.22;19.98;;;17.80;99.90;;;;;;5080093;28;20201;-79
2021/06/05 09:49:15;;;;;;;26.50;18.33;;;17.80;99.90;;;;;;5079518;28;20301;-77
2021/06/05 09:51:46;;;;;;;27.88;17.40;;;17.90;99.90;;;;;;5080706;28;20200;-76
2021/06/05 09:54:15;;;;;;;25.50;17.33;;;17.80;99.90;;;;;;5086723;28;20237;-82
2021/06/05 09:56:44;;;;;;;27.15;18.10;;;17.80;99.90;;;;;;5084822;28;20205;-78
2021/06/05 09:59:19;;;;;;;26.67;18.52;;;17.90;99.90;;;;;;5088459;28;20194;-74
2021/06/05 10:01:56;;;;;;;27.42;16.30;;;17.90;99.90;;;;;;5085935;28;20205;-77
2021/06/05 10:04:25;;;;;;;32.28;18.85;;;17.80;99.90;;;;;;5091264;28;20197;-76
2021/06/05 10:06:54;;;;;;;25.65;15.25;;;17.80;99.90;;;;;;5087316;28;20951;-74
2021/06/05 10:09:39;;;;;;;24.50;15.45;;;17.90;99.90;;;;;;5089933;28;20213;-75
2021/06/05 10:12:09;;;;;;;20.20;12.75;;;17.80;99.90;;;;;;5087964;28;20202;-75
2021/06/05 10:14:52;;;;;;;17.65;12.05;;;17.80;99.90;;;;;;5088773;28;20198;-74
2021/06/05 10:17:25;;;;;;;17.70;12.40;;;17.80;99.90;;;;;;5088743;28;20202;-75
2021/06/05 10:19:55;;;;;;;18.23;12.82;;;17.90;99.90;;;;;;5087345;28;20685;-74
2021/06/05 10:22:23;;;;;;;20.10;13.30;;;17.90;99.90;;;;;;5087830;28;20204;-77
2021/06/05 10:24:55;;;;;;;19.08;14.60;;;17.90;99.90;;;;;;5088691;28;20210;-75
2021/06/05 10:27:27;;;;;;;20.15;14.25;;;17.90;99.90;;;;;;5089854;28;20230;-74
2021/06/05 10:30:02;;;;;;;21.15;14.95;;;17.80;99.90;;;;;;5085269;28;20658;-76
2021/06/05 10:32:32;;;;;;;20.70;13.02;;;17.90;99.90;;;;;;5089776;28;20262;-76
2021/06/05 10:35:04;;;;;;;17.38;13.43;;;17.80;99.90;;;;;;5085308;28;20205;-78
2021/06/05 10:37:35;;;;;;;19.23;13.60;;;17.80;99.90;;;;;;5088862;28;20673;-75
2021/06/05 10:40:05;;;;;;;19.08;14.70;;;17.80;99.90;;;;;;5086830;28;20217;-75
2021/06/05 10:42:39;;;;;;;18.80;14.77;;;17.80;99.90;;;;;;5088731;28;20202;-76
2021/06/05 10:45:12;;;;;;;23.38;16.30;;;17.80;99.90;;;;;;5084295;28;20247;-75
2021/06/05 10:47:48;;;;;;;20.80;15.27;;;17.80;99.90;;;;;;5084983;28;20217;-78
2021/06/05 10:50:20;;;;;;;22.45;16.73;;;17.80;99.90;;;;;;5084779;28;20931;-77
2021/06/05 10:52:51;;;;;;;24.63;17.45;;;17.80;99.90;;;;;;5088175;28;20202;-76
2021/06/05 10:55:23;;;;;;;24.48;17.38;;;17.80;99.90;;;;;;5086522;28;22162;-76
2021/06/05 10:58:11;;;;;;;22.58;16.17;;;17.80;99.90;;;;;;5088256;28;20206;-75
2021/06/05 11:00:48;;;;;;;22.60;16.10;;;17.80;99.90;;;;;;5084778;28;20614;-76
2021/06/05 11:03:48;;;;;;;24.23;17.52;;;17.90;99.90;;;;;;5086169;28;20296;-77
2021/06/05 11:06:17;;;;;;;24.10;17.40;;;17.90;99.90;;;;;;5083263;28;20295;-76
2021/06/05 11:08:48;;;;;;;23.92;17.33;;;17.90;99.90;;;;;;5085487;28;20224;-76
2021/06/05 11:11:36;;;;;;;19.05;14.25;;;17.90;99.90;;;;;;5083513;28;20213;-75
2021/06/05 11:14:06;;;;;;;21.30;16.15;;;17.90;99.90;;;;;;5086185;28;20201;-77
2021/06/05 11:17:09;;;;;;;24.65;17.52;;;18.00;99.90;;;;;;5085680;28;20209;-78
2021/06/05 11:19:40;;;;;;;28.67;18.25;;;18.00;99.90;;;;;;5084384;28;20423;-75
2021/06/05 11:22:09;;;;;;;29.20;19.45;;;18.00;99.90;;;;;;5087993;28;20193;-77
2021/06/05 11:24:37;;;;;;;29.20;18.30;;;18.10;99.90;;;;;;5083891;28;20587;-77
2021/06/05 11:27:09;;;;;;;28.77;19.00;;;18.00;99.90;;;;;;5085456;28;20701;-76
2021/06/05 11:29:55;;;;;;;29.25;17.83;;;18.10;99.90;;;;;;5084193;28;22126;-76
2021/06/05 11:32:35;;;;;;;25.38;16.45;;;18.10;99.90;;;;;;5087068;28;20218;-77
2021/06/05 11:35:09;;;;;;;25.02;15.52;;;18.10;99.90;;;;;;5087844;28;20255;-77
2021/06/05 11:37:54;;;;;;;25.45;17.15;;;18.20;99.90;;;;;;5087321;28;20208;-78
2021/06/05 11:40:49;;;;;;;28.33;18.60;;;18.20;99.90;;;;;;5087257;28;20268;-76
2021/06/05 11:43:21;;;;;;;30.45;19.65;;;18.20;99.90;;;;;;5088190;28;20559;-75
2021/06/05 11:45:58;;;;;;;28.35;18.85;;;18.10;99.90;;;;;;5085360;28;20304;-76
2021/06/05 11:48:51;;;;;;;29.08;20.08;;;18.10;99.90;;;;;;5085264;28;20209;-77
2021/06/05 11:51:38;;;;;;;30.17;20.00;;;18.10;99.90;;;;;;5086489;28;20281;-74
2021/06/05 11:54:19;;;;;;;32.67;20.17;;;18.10;99.90;;;;;;5085919;28;20208;-73
2021/06/05 11:56:49;;;;;;;35.63;21.75;;;18.10;99.90;;;;;;5081281;28;20284;-74
2021/06/05 11:59:30;;;;;;;33.92;19.98;;;18.10;99.90;;;;;;5084757;28;20278;-73
2021/06/05 12:02:12;;;;;;;37.88;21.92;;;18.00;99.90;;;;;;5077990;28;20662;-74
2021/06/05 12:04:44;;;;;;;34.33;20.27;;;18.00;99.90;;;;;;5078265;28;20201;-77
2021/06/05 12:07:25;;;;;;;34.97;20.42;;;18.00;99.90;;;;;;5080863;28;20198;-74
2021/06/05 12:09:56;;;;;;;33.30;20.58;;;18.00;99.90;;;;;;5083634;28;20236;-73
2021/06/05 12:12:24;;;;;;;35.65;20.80;;;18.00;99.90;;;;;;5085020;28;20230;-74
2021/06/05 12:15:00;;;;;;;36.42;19.90;;;18.00;99.90;;;;;;5076423;28;20623;-76
2021/06/05 12:17:32;;;;;;;37.53;20.17;;;18.00;99.90;;;;;;5079551;28;20200;-74
2021/06/05 12:20:05;;;;;;;36.40;19.98;;;18.00;99.90;;;;;;5076966;28;20198;-75
2021/06/05 12:22:34;;;;;;;38.58;19.35;;;18.00;99.90;;;;;;5078886;28;20206;-74
2021/06/05 12:25:00;;;;;;;35.28;19.10;;;18.00;99.90;;;;;;5085442;28;20194;-75
2021/06/05 12:27:31;;;;;;;34.85;18.60;;;18.10;99.90;;;;;;5086583;28;20233;-72
2021/06/05 12:30:15;;;;;;;37.92;19.40;;;18.10;99.90;;;;;;5082153;28;20212;-74
2021/06/05 12:32:54;;;;;;;39.35;20.25;;;18.10;99.90;;;;;;5087944;28;20666;-77
2021/06/05 12:35:24;;;;;;;44.05;21.00;;;18.20;99.90;;;;;;5083246;28;20197;-77
2021/06/05 12:37:57;;;;;;;43.72;20.67;;;18.20;99.90;;;;;;5084506;28;20248;-77
2021/06/05 12:40:28;;;;;;;39.30;20.08;;;18.20;99.90;;;;;;5083032;28;20654;-74
2021/06/05 12:42:55;;;;;;;39.45;19.38;;;18.20;99.90;;;;;;5085710;28;20209;-76
2021/06/05 12:45:25;;;;;;;42.72;20.75;;;18.20;99.90;;;;;;5086426;28;20206;-77